Weather at Beijing Capital International Airport

Public forecast

Using degrees Celsius for public forecast. Weather courtesy of forecast.io.

Current aviation weather report (METAR) for Beijing Capital International Airport

Retrieved 2020/10/30 12:30 UTC (28 minutes ago):

ZBAA 301230Z 16002MPS 140V220 CAVOK 12/03 Q1024 NOSIG

Aviation forecast (TAF) for Beijing Capital International Airport

Retrieved 2020/10/30 12:03 UTC (55 minutes ago):

TAF TAF ZBAA 300901Z 3012/3112 18004MPS 5000 BR NSC TX20/3107Z TN05/3021Z BECMG 3102/3103 32008G15MPS